Hove, Belgium
Current Conditions -  °F | °C
As of 3:20 PM on Thursday 29 Jan 2015 (Local Time) from EBAW Reporting Station
Broken Clouds Broken Clouds  
Wind Chill:   Ceiling: 2400
Heat Index:   Visibility: 6mi
Dew Point:   Wind: 15mph
Humidity: 76%   Direction: 220°SW
Pressure: 28.97"   Gusts: NA
Location:  51.15°N, 4.47°E
Report Text: EBAW 291420Z 22013KT 180V240 9999 SCT017 BKN024 05/01 Q0981 TEMPO 23018G30KT 6000 SHRA
Loading
Personal Weather Stations






























Interactive Weather Map New forecast layout! Learn more

10-Day Weather Forecast

Advertisements
Track Severe Weather on mobile